Time;durP1;ratioP1;P1;durP2;ratioP2;P2;SDS_P1;SDS_P2;PMS_P1;PMS_P2;Temp;Humidity;BMP_temperature;BMP_pressure;BME280_temperature;BME280_humidity;BME280_pressure;Samples;Min_cycle;Max_cycle;Signal;HPM_P1;HPM_P2
2022/06/16 00:00:11;;;;;;;3.38;2.50;;;;;;;14.08;73.27;98651.38;4957775;28;20166;-64
2022/06/16 00:02:47;;;;;;;4.00;2.88;;;;;;;14.06;73.44;98651.66;4974807;28;20050;-63
2022/06/16 00:05:14;;;;;;;3.28;2.60;;;;;;;14.06;73.32;98651.66;4957416;28;20042;-64
2022/06/16 00:07:41;;;;;;;5.32;2.60;;;;;;;14.08;73.14;98649.50;4974937;28;20056;-64
2022/06/16 00:10:08;;;;;;;4.47;2.50;;;;;;;14.08;73.34;98657.50;4957524;28;20043;-66
2022/06/16 00:12:34;;;;;;;4.50;2.22;;;;;;;14.07;73.00;98650.59;4941165;28;20520;-64
2022/06/16 00:15:01;;;;;;;2.53;2.33;;;;;;;14.07;72.96;98653.25;4974981;28;20126;-64
2022/06/16 00:17:28;;;;;;;3.65;2.30;;;;;;;14.03;72.85;98646.91;4974489;28;20066;-64
2022/06/16 00:19:54;;;;;;;5.45;2.72;;;;;;;14.01;73.11;98651.69;4974843;28;20043;-64
2022/06/16 00:22:20;;;;;;;3.13;2.55;;;;;;;14.02;73.31;98655.94;4974341;28;20051;-65
2022/06/16 00:24:45;;;;;;;4.45;2.38;;;;;;;14.02;73.16;98649.81;4957030;28;20134;-64
2022/06/16 00:27:11;;;;;;;4.47;2.13;;;;;;;14.02;72.82;98652.47;4974259;28;20038;-64
2022/06/16 00:29:37;;;;;;;4.38;2.60;;;;;;;14.03;73.01;98648.75;4974634;28;20089;-63
2022/06/16 00:32:03;;;;;;;3.50;2.40;;;;;;;13.99;73.04;98645.03;4956776;28;20066;-64
2022/06/16 00:34:29;;;;;;;4.03;2.47;;;;;;;13.97;72.94;98653.34;4974526;28;20329;-64
2022/06/16 00:36:55;;;;;;;2.97;2.40;;;;;;;13.95;73.14;98650.16;4956755;28;20410;-65
2022/06/16 00:39:21;;;;;;;3.75;2.45;;;;;;;13.91;73.31;98645.63;4956851;28;20050;-64
2022/06/16 00:41:47;;;;;;;3.58;2.47;;;;;;;13.89;72.79;98655.78;4974316;28;20125;-65
2022/06/16 00:44:30;;;;;;;4.80;2.40;;;;;;;13.88;72.92;98657.63;4974296;28;20046;-64
2022/06/16 00:46:56;;;;;;;4.18;2.45;;;;;;;13.86;72.73;98651.81;4956684;28;20058;-64
2022/06/16 00:49:23;;;;;;;2.72;2.40;;;;;;;13.86;72.88;98646.47;4924843;28;20042;-63
2022/06/16 00:51:52;;;;;;;3.20;2.40;;;;;;;13.95;72.77;98657.34;4940569;28;20050;-63
2022/06/16 00:54:34;;;;;;;3.78;2.08;;;;;;;14.08;72.55;98649.50;4956447;28;20073;-63
2022/06/16 00:57:08;;;;;;;4.75;2.25;;;;;;;14.26;71.60;98655.22;4956569;28;20066;-65
2022/06/16 00:59:35;;;;;;;4.32;2.30;;;;;;;14.40;71.17;98650.84;4939912;28;20146;-63
2022/06/16 01:02:03;;;;;;;2.58;2.08;;;;;;;14.53;70.26;98649.44;4940456;28;20082;-64
2022/06/16 01:07:14;;;;;;;3.70;2.35;;;;;;;14.45;70.56;98653.47;4942970;28;20448;-63
2022/06/16 01:09:41;;;;;;;5.00;2.33;;;;;;;14.26;71.18;98656.03;4973401;28;20390;-63
2022/06/16 01:15:21;;;;;;;2.50;2.30;;;;;;;14.01;72.12;98666.91;4956344;28;20105;-64
2022/06/16 01:18:09;;;;;;;3.97;2.42;;;;;;;13.96;72.34;98661.59;4956029;28;20138;-64
2022/06/16 01:20:40;;;;;;;5.63;2.40;;;;;;;13.91;72.50;98662.41;4973807;28;20066;-65
2022/06/16 01:23:15;;;;;;;3.50;2.35;;;;;;;13.89;72.13;98658.44;4973554;28;20039;-64
2022/06/16 01:25:50;;;;;;;8.90;2.60;;;;;;;13.91;72.53;98665.06;4955980;28;20054;-62
2022/06/16 01:28:31;;;;;;;10.18;2.72;;;;;;;13.90;72.34;98662.69;4956052;28;20042;-65
2022/06/16 01:30:59;;;;;;;;;;;;;;;13.86;72.30;98651.81;4973495;28;20137;-64
2022/06/16 01:33:35;;;;;;;3.58;2.10;;;;;;;13.83;72.00;98663.81;4939999;28;19972;-65
2022/06/16 01:36:25;;;;;;;3.45;2.30;;;;;;;13.89;72.18;98671.78;4939945;28;20038;-63
2022/06/16 01:39:04;;;;;;;4.00;2.35;;;;;;;13.88;72.19;98668.28;4955991;28;20046;-63
2022/06/16 01:41:39;;;;;;;2.33;2.13;;;;;;;13.87;72.22;98664.03;4939763;28;20551;-64
2022/06/16 01:44:11;;;;;;;3.40;2.30;;;;;;;13.91;71.95;98666.94;4955740;28;20049;-63
2022/06/16 01:46:39;;;;;;;4.15;2.20;;;;;;;14.00;71.59;98666.09;4939966;28;20101;-65
2022/06/16 01:49:21;;;;;;;4.90;2.13;;;;;;;14.10;71.52;98675.88;4924296;28;20047;-64
2022/06/16 01:51:59;;;;;;;2.40;2.20;;;;;;;14.14;70.73;98673.44;4939628;28;20054;-64
2022/06/16 01:54:27;;;;;;;4.53;2.35;;;;;;;14.16;70.83;98680.09;4939703;28;20051;-63
2022/06/16 01:57:17;;;;;;;3.40;2.50;;;;;;;14.24;70.13;98690.19;4972801;28;20098;-65
2022/06/16 01:59:48;;;;;;;2.15;2.03;;;;;;;14.26;69.60;98682.69;4939712;28;20361;-63
2022/06/16 02:02:18;;;;;;;2.78;2.20;;;;;;;14.29;68.98;98684.81;4939492;28;20058;-65
2022/06/16 02:04:48;;;;;;;2.40;2.13;;;;;;;14.40;69.17;98695.38;4923879;28;20489;-63
2022/06/16 02:07:22;;;;;;;2.30;2.10;;;;;;;14.44;69.03;98691.91;4939420;28;20078;-64
2022/06/16 02:09:51;;;;;;;4.63;2.10;;;;;;;14.49;68.85;98699.81;4939995;28;20047;-64
2022/06/16 02:15:40;;;;;;;2.67;2.00;;;;;;;14.56;68.44;98696.06;4955384;28;20074;-64
2022/06/16 02:18:11;;;;;;;1.90;1.70;;;;;;;14.53;68.24;98694.78;4923644;28;20050;-62
2022/06/16 02:21:07;;;;;;;3.80;1.95;;;;;;;14.51;68.31;98696.91;4955511;28;20042;-64
2022/06/16 02:23:34;;;;;;;5.68;2.00;;;;;;;14.56;68.34;98696.06;4926764;28;20469;-63
2022/06/16 02:26:00;;;;;;;3.33;2.25;;;;;;;14.70;67.61;98699.69;4972773;28;20155;-66
2022/06/16 02:28:26;;;;;;;2.45;1.88;;;;;;;14.85;67.62;98698.75;4972500;28;20059;-64
2022/06/16 02:30:52;;;;;;;4.53;2.20;;;;;;;14.95;67.06;98699.44;4939351;28;20254;-65
2022/06/16 02:33:26;;;;;;;2.22;2.03;;;;;;;15.26;65.72;98711.66;4955022;28;20616;-63
2022/06/16 02:36:40;;;;;;;3.78;2.20;;;;;;;15.67;64.55;98720.81;4939295;28;20536;-63
2022/06/16 02:39:12;;;;;;;2.15;1.95;;;;;;;15.87;63.74;98725.09;4948413;28;20444;-64
2022/06/16 02:41:58;;;;;;;3.38;1.80;;;;;;;16.24;62.31;98731.53;4955184;28;20508;-64
2022/06/16 02:44:33;;;;;;;6.85;2.50;;;;;;;16.91;60.26;98733.97;4938997;28;20413;-64
2022/06/16 02:47:03;;;;;;;3.50;2.00;;;;;;;17.82;57.76;98738.63;4939274;28;20046;-64
2022/06/16 02:49:37;;;;;;;4.45;2.10;;;;;;;18.72;55.26;98733.34;4955154;28;20050;-64
2022/06/16 02:52:06;;;;;;;2.45;1.70;;;;;;;19.44;52.92;98742.25;4954936;28;20078;-64
2022/06/16 02:54:47;;;;;;;1.83;1.70;;;;;;;20.04;51.16;98730.06;4954898;28;20438;-64
2022/06/16 02:57:21;;;;;;;1.80;1.70;;;;;;;20.48;49.60;98738.91;4954956;28;20142;-63
2022/06/16 02:59:51;;;;;;;2.30;1.70;;;;;;;20.78;48.90;98740.63;4939133;28;20046;-65
2022/06/16 03:02:21;;;;;;;3.97;2.03;;;;;;;20.91;48.77;98735.38;4939280;28;20042;-65
2022/06/16 03:04:50;;;;;;;3.97;1.73;;;;;;;21.14;47.69;98730.53;4939066;28;20129;-65
2022/06/16 03:07:19;;;;;;;1.85;1.60;;;;;;;21.24;47.71;98730.19;4954879;28;20059;-65
2022/06/16 03:09:46;;;;;;;4.63;1.77;;;;;;;21.39;47.05;98736.97;4938288;28;20413;-65
2022/06/16 03:12:13;;;;;;;6.75;1.70;;;;;;;21.70;46.10;98734.72;4954629;28;20055;-65
2022/06/16 03:14:41;;;;;;;1.80;1.60;;;;;;;21.81;45.51;98735.16;4954698;28;20121;-64
2022/06/16 03:17:08;;;;;;;4.78;1.55;;;;;;;22.10;45.18;98742.41;4971901;28;20062;-64
2022/06/16 03:19:35;;;;;;;1.83;1.55;;;;;;;22.38;44.86;98742.69;4938818;28;20460;-66
2022/06/16 03:22:02;;;;;;;2.22;1.80;;;;;;;22.55;44.12;98744.41;4971862;28;20104;-65
2022/06/16 03:24:29;;;;;;;1.70;1.60;;;;;;;22.86;43.23;98743.19;4975287;28;20747;-65
2022/06/16 03:26:55;;;;;;;2.58;1.73;;;;;;;23.08;42.62;98747.41;4958268;28;20054;-64
2022/06/16 03:29:25;;;;;;;3.42;1.77;;;;;;;23.28;42.65;98748.44;4957620;28;20199;-66
2022/06/16 03:31:53;;;;;;;1.73;1.63;;;;;;;23.12;42.68;98743.72;4957979;28;20057;-64
2022/06/16 03:34:23;;;;;;;1.65;1.50;;;;;;;23.13;42.75;98741.78;4942431;28;20489;-65
2022/06/16 03:36:51;;;;;;;2.70;1.60;;;;;;;23.31;42.58;98745.06;4974992;28;20047;-65
2022/06/16 03:39:27;;;;;;;2.28;1.60;;;;;;;23.56;41.86;98752.06;4957675;28;20042;-65
2022/06/16 03:41:52;;;;;;;4.63;1.60;;;;;;;23.68;41.59;98747.75;4957857;28;20528;-65
2022/06/16 03:44:18;;;;;;;2.63;1.77;;;;;;;23.79;41.52;98749.69;4957634;28;20067;-64
2022/06/16 03:46:45;;;;;;;4.68;1.90;;;;;;;23.78;41.20;98750.81;4957596;28;20058;-64
2022/06/16 03:49:14;;;;;;;3.33;1.90;;;;;;;23.54;41.52;98751.59;4957527;28;20130;-64
2022/06/16 03:51:46;;;;;;;3.75;1.90;;;;;;;23.63;41.89;98754.19;4957481;28;20543;-64
2022/06/16 03:54:18;;;;;;;4.05;1.73;;;;;;;23.64;41.61;98754.97;4957433;28;20047;-64
2022/06/16 03:56:45;;;;;;;3.70;1.92;;;;;;;23.80;41.38;98753.97;4941734;28;20194;-64
2022/06/16 03:59:15;;;;;;;5.00;1.80;;;;;;;23.89;41.00;98761.19;4957266;28;20097;-65
2022/06/16 04:01:41;;;;;;;4.18;1.92;;;;;;;23.76;41.56;98761.19;4957432;28;20054;-64
2022/06/16 04:04:08;;;;;;;5.28;1.98;;;;;;;23.83;41.36;98762.56;4957493;28;20042;-62
2022/06/16 04:06:43;;;;;;;7.22;1.77;;;;;;;23.80;41.15;98769.44;4957401;28;20046;-64
2022/06/16 04:09:08;;;;;;;5.25;1.75;;;;;;;23.85;41.51;98769.19;4941403;28;20118;-63
2022/06/16 04:11:36;;;;;;;3.65;1.80;;;;;;;23.95;41.50;98774.16;4941166;28;20055;-63
2022/06/16 04:14:08;;;;;;;3.80;1.80;;;;;;;24.11;40.67;98766.09;4941697;28;20144;-65
2022/06/16 04:16:46;;;;;;;3.45;1.88;;;;;;;24.22;40.81;98767.19;4957299;28;20145;-64
2022/06/16 04:19:18;;;;;;;1.67;1.50;;;;;;;24.33;40.15;98772.16;4941289;28;20045;-64
2022/06/16 04:21:45;;;;;;;6.90;2.17;;;;;;;24.25;40.74;98760.31;4941474;28;20046;-65
2022/06/16 04:24:18;;;;;;;4.15;3.00;;;;;;;24.31;40.34;98772.47;4957133;28;20039;-65
2022/06/16 04:26:47;;;;;;;2.25;1.77;;;;;;;24.33;40.68;98764.03;4957091;28;20105;-64
2022/06/16 04:29:14;;;;;;;3.08;1.90;;;;;;;24.19;40.73;98762.47;4957077;28;20074;-65
2022/06/16 04:31:43;;;;;;;4.03;1.88;;;;;;;24.26;41.32;98759.94;4956684;28;20128;-65
2022/06/16 04:34:11;;;;;;;7.80;2.05;;;;;;;24.27;40.51;98763.47;4941030;28;20047;-65
2022/06/16 04:36:39;;;;;;;2.75;1.75;;;;;;;24.41;40.12;98773.91;4941009;28;20505;-66
2022/06/16 04:39:11;;;;;;;4.13;1.60;;;;;;;24.60;40.12;98773.31;4941435;28;20054;-64
2022/06/16 04:41:39;;;;;;;3.45;1.65;;;;;;;24.76;39.05;98766.00;4925270;28;20141;-64
2022/06/16 04:44:07;;;;;;;2.17;1.65;;;;;;;24.82;39.43;98769.25;4940522;28;20122;-65
2022/06/16 04:46:34;;;;;;;7.03;1.60;;;;;;;24.94;39.36;98771.88;4956756;28;20385;-65
2022/06/16 04:49:01;;;;;;;7.53;1.90;;;;;;;25.09;39.57;98770.31;4956524;28;20050;-65
2022/06/16 04:51:34;;;;;;;3.63;1.80;;;;;;;25.19;38.99;98769.84;4956581;28;20043;-64
2022/06/16 04:54:00;;;;;;;5.53;1.90;;;;;;;25.22;39.35;98771.06;4940813;28;20039;-65
2022/06/16 04:56:46;;;;;;;2.55;1.65;;;;;;;25.15;38.79;98775.19;4934019;28;20158;-64
2022/06/16 04:59:40;;;;;;;5.00;1.92;;;;;;;25.07;38.35;98775.31;4944123;28;20042;-65
2022/06/16 05:02:24;;;;;;;6.75;2.03;;;;;;;25.12;39.03;98775.06;4940311;28;20039;-65
2022/06/16 05:05:06;;;;;;;3.28;1.67;;;;;;;25.15;38.78;98779.81;4956366;28;20503;-64
2022/06/16 05:07:51;;;;;;;3.65;1.50;;;;;;;25.16;38.67;98789.53;4956353;28;20053;-65
2022/06/16 05:10:40;;;;;;;4.30;1.98;;;;;;;24.98;39.19;98785.53;4956058;28;20038;-65
2022/06/16 05:13:26;;;;;;;3.33;2.30;;;;;;;24.66;39.13;98775.41;4959481;28;20066;-64
2022/06/16 05:16:15;;;;;;;4.18;2.22;;;;;;;24.24;40.59;98770.38;4936635;28;20081;-64
2022/06/16 05:18:59;;;;;;;5.97;1.67;;;;;;;23.95;41.43;98781.47;4958428;28;20062;-64
2022/06/16 05:22:00;;;;;;;4.18;2.25;;;;;;;23.70;41.14;98781.50;4949303;28;20069;-65
2022/06/16 05:24:35;;;;;;;3.78;1.67;;;;;;;23.41;41.50;98782.47;4955877;28;20085;-65
2022/06/16 05:27:16;;;;;;;6.97;2.05;;;;;;;23.21;42.27;98781.47;4973302;28;20057;-65
2022/06/16 05:30:17;;;;;;;5.07;2.28;;;;;;;23.15;42.96;98787.41;4973056;28;20046;-65
2022/06/16 05:33:03;;;;;;;4.45;1.80;;;;;;;23.10;42.49;98777.59;4956111;28;20047;-64
2022/06/16 05:35:41;;;;;;;5.90;2.10;;;;;;;23.06;43.02;98785.59;4957921;28;20059;-64
2022/06/16 05:38:27;;;;;;;3.45;1.88;;;;;;;22.82;43.85;98782.78;4955058;28;20046;-65
2022/06/16 05:41:14;;;;;;;2.67;1.88;;;;;;;22.64;43.98;98776.75;4972910;28;20492;-64
2022/06/16 05:43:59;;;;;;;5.28;2.00;;;;;;;22.49;43.98;98786.25;4955391;28;20051;-64
2022/06/16 05:47:05;;;;;;;4.80;2.22;;;;;;;22.32;44.34;98781.78;4967944;28;20082;-64
2022/06/16 05:49:38;;;;;;;6.07;1.95;;;;;;;22.27;44.36;98775.81;4924157;28;20046;-64
2022/06/16 05:52:18;;;;;;;4.45;2.20;;;;;;;22.21;44.69;98775.22;4955386;28;20058;-63
2022/06/16 05:54:56;;;;;;;2.65;1.90;;;;;;;22.05;44.64;98782.28;4955555;28;20065;-66
2022/06/16 05:57:24;;;;;;;3.58;2.08;;;;;;;21.95;45.01;98783.47;4939882;28;20039;-65
2022/06/16 05:59:50;;;;;;;4.82;1.83;;;;;;;21.93;45.15;98773.00;4939431;28;20096;-65
2022/06/16 06:02:18;;;;;;;2.88;2.00;;;;;;;21.92;45.32;98776.81;4955597;28;20544;-65
2022/06/16 06:04:45;;;;;;;6.28;1.95;;;;;;;21.82;46.28;98774.47;4955270;28;20097;-64
2022/06/16 06:07:11;;;;;;;5.72;2.00;;;;;;;21.80;44.77;98778.66;4972279;28;20066;-64
2022/06/16 06:16:25;;;;;;;3.53;1.80;;;;;;;21.70;45.35;98777.88;4955115;28;20086;-64
2022/06/16 06:18:21;;;;;;;4.18;1.92;;;;;;;21.68;46.20;98776.66;4941537;28;20525;-64
2022/06/16 06:20:48;;;;;;;5.20;2.17;;;;;;;21.73;45.83;98776.44;4923709;28;20074;-65
2022/06/16 06:23:14;;;;;;;11.00;2.20;;;;;;;21.73;45.61;98765.66;4938838;28;20137;-63
2022/06/16 06:25:41;;;;;;;2.30;2.10;;;;;;;21.75;45.54;98772.31;4955313;28;20186;-64
2022/06/16 06:28:11;;;;;;;4.45;2.03;;;;;;;21.76;45.17;98775.78;4939441;28;20412;-64
2022/06/16 06:30:37;;;;;;;4.57;1.90;;;;;;;21.78;45.13;98779.75;4939013;28;20532;-64
2022/06/16 06:33:05;;;;;;;4.15;1.80;;;;;;;21.73;44.34;98774.53;4954936;28;20082;-65
2022/06/16 06:35:31;;;;;;;3.63;2.13;;;;;;;21.89;44.81;98782.88;4972742;28;20503;-65
2022/06/16 06:37:57;;;;;;;2.97;2.13;;;;;;;22.05;44.96;98774.97;4972420;28;20444;-65
2022/06/16 06:40:30;;;;;;;2.80;2.20;;;;;;;22.08;44.53;98776.22;4954766;28;20093;-65
2022/06/16 06:42:56;;;;;;;7.85;2.53;;;;;;;22.10;44.45;98772.09;4954712;28;20456;-66
2022/06/16 06:45:22;;;;;;;4.63;2.25;;;;;;;22.22;43.57;98774.09;4972452;28;20050;-65
2022/06/16 06:47:48;;;;;;;2.47;2.13;;;;;;;22.32;42.42;98767.50;4972250;28;20053;-65
2022/06/16 06:50:20;;;;;;;7.32;2.28;;;;;;;22.37;42.50;98773.50;4954885;28;20047;-64
2022/06/16 06:52:46;;;;;;;1.88;1.75;;;;;;;22.54;42.00;98777.19;4972164;28;20121;-65
2022/06/16 06:55:12;;;;;;;8.43;2.30;;;;;;;22.80;41.17;98771.53;4972348;28;20481;-64
2022/06/16 06:57:38;;;;;;;4.28;1.75;;;;;;;23.02;40.72;98770.38;4955408;28;20047;-64
2022/06/16 07:00:04;;;;;;;2.70;1.90;;;;;;;23.14;41.31;98773.09;4976185;28;20070;-66
2022/06/16 07:02:30;;;;;;;3.58;2.10;;;;;;;23.20;40.69;98770.97;4975795;28;20062;-65
2022/06/16 07:04:55;;;;;;;3.88;1.88;;;;;;;22.99;40.48;98774.53;4976044;28;20038;-67
2022/06/16 07:07:23;;;;;;;3.05;1.85;;;;;;;22.92;40.51;98771.56;4975765;28;20054;-66
2022/06/16 07:09:50;;;;;;;4.07;1.70;;;;;;;22.83;38.79;98768.16;4942538;28;20526;-64
2022/06/16 07:12:16;;;;;;;6.75;2.00;;;;;;;;;;4958125;28;20476;-66
2022/06/16 07:14:42;;;;;;;3.15;1.90;;;;;;;22.72;38.93;98772.41;4975766;28;20043;-65
2022/06/16 07:17:08;;;;;;;2.00;1.77;;;;;;;22.58;37.82;98776.16;4975213;28;20105;-65
2022/06/16 07:19:35;;;;;;;5.30;2.10;;;;;;;22.55;39.00;98774.13;4975739;28;20042;-64
2022/06/16 07:22:03;;;;;;;5.43;1.88;;;;;;;22.75;38.64;98777.94;4942150;28;20405;-65
2022/06/16 07:24:29;;;;;;;2.05;1.50;;;;;;;22.95;38.52;98779.03;4975304;28;20046;-65
2022/06/16 07:26:54;;;;;;;4.53;1.80;;;;;;;23.17;37.79;98764.31;4957814;28;20239;-66
2022/06/16 07:29:20;;;;;;;5.40;1.90;;;;;;;23.39;37.63;98762.31;4957949;28;20077;-64
2022/06/16 07:31:45;;;;;;;2.38;1.70;;;;;;;23.50;37.47;98756.13;4974817;28;20043;-65
2022/06/16 07:34:12;;;;;;;4.80;1.90;;;;;;;23.72;37.60;98764.94;4957887;28;20046;-65
2022/06/16 07:36:38;;;;;;;5.03;1.77;;;;;;;23.90;37.65;98760.84;4975106;28;20042;-65
2022/06/16 07:39:04;;;;;;;6.18;1.98;;;;;;;23.93;37.49;98756.66;4957793;28;20105;-64
2022/06/16 07:41:36;;;;;;;5.72;1.80;;;;;;;23.92;38.07;98750.47;4925705;28;20043;-66
2022/06/16 07:44:04;;;;;;;4.43;1.85;;;;;;;24.00;37.00;98748.75;4975038;28;20049;-65
2022/06/16 07:46:30;;;;;;;3.97;2.00;;;;;;;24.15;36.44;98749.94;4974886;28;20058;-65
2022/06/16 07:48:55;;;;;;;3.72;2.03;;;;;;;23.97;36.76;98749.44;4974986;28;20039;-64
2022/06/16 07:51:21;;;;;;;5.68;2.00;;;;;;;23.89;36.90;98751.16;4974730;28;20447;-66
2022/06/16 07:53:48;;;;;;;6.80;1.80;;;;;;;24.11;36.14;98738.25;4974834;28;20050;-65
2022/06/16 07:56:14;;;;;;;4.78;1.88;;;;;;;24.17;36.10;98737.66;4975032;28;20047;-64
2022/06/16 07:58:41;;;;;;;4.80;1.92;;;;;;;24.12;35.37;98746.03;4957369;28;20062;-64
2022/06/16 08:01:07;;;;;;;4.88;2.20;;;;;;;24.16;35.13;98744.19;4974872;28;20117;-66
2022/06/16 08:03:34;;;;;;;4.35;1.80;;;;;;;24.11;36.06;98746.34;4957387;28;20066;-65
2022/06/16 08:06:02;;;;;;;7.72;2.17;;;;;;;24.14;36.10;98745.66;4974821;28;20046;-65
2022/06/16 08:08:28;;;;;;;4.63;2.10;;;;;;;24.00;35.30;98754.97;4956774;28;20408;-66
2022/06/16 08:10:54;;;;;;;2.90;1.92;;;;;;;23.99;35.14;98739.06;4957234;28;20047;-66
2022/06/16 08:13:21;;;;;;;9.60;2.35;;;;;;;24.20;35.13;98755.91;4957132;28;20042;-65
2022/06/16 08:15:48;;;;;;;5.20;2.35;;;;;;;24.10;35.81;98742.09;4974282;28;20050;-65
2022/06/16 08:18:14;;;;;;;14.30;2.95;;;;;;;23.61;38.53;98753.72;4974574;28;20043;-65
2022/06/16 08:20:41;;;;;;;4.68;2.00;;;;;;;23.02;41.17;98762.25;4957034;28;20103;-65
2022/06/16 08:23:07;;;;;;;4.00;2.10;;;;;;;22.71;43.50;98751.91;4974475;28;20050;-66
2022/06/16 08:25:33;;;;;;;4.30;2.05;;;;;;;22.47;44.42;98763.41;4974618;28;20043;-66
2022/06/16 08:27:59;;;;;;;7.78;2.38;;;;;;;21.91;44.61;98759.06;4973739;28;20185;-64
2022/06/16 08:30:25;;;;;;;3.40;2.00;;;;;;;21.69;45.33;98776.31;4956737;28;20043;-64
2022/06/16 08:32:51;;;;;;;2.13;1.92;;;;;;;21.60;45.17;98774.78;4974015;28;20053;-65
2022/06/16 08:35:17;;;;;;;2.22;1.90;;;;;;;21.59;45.07;98770.50;4956909;28;20043;-65
2022/06/16 08:37:42;;;;;;;5.95;2.10;;;;;;;21.58;44.75;98766.22;4956555;28;20133;-64
2022/06/16 08:40:10;;;;;;;2.42;1.67;;;;;;;21.42;44.78;98760.59;4974395;28;20337;-64
2022/06/16 08:42:41;;;;;;;4.95;2.22;;;;;;;21.32;44.74;98762.50;4973812;28;20053;-64
2022/06/16 08:45:18;;;;;;;2.35;1.65;;;;;;;21.32;43.28;98767.91;4940451;28;20427;-64
2022/06/16 08:47:46;;;;;;;3.05;1.70;;;;;;;21.44;43.38;98764.56;4973770;28;20065;-65
2022/06/16 08:50:36;;;;;;;3.67;1.90;;;;;;;21.45;42.32;98768.03;4973562;28;20413;-65
2022/06/16 08:53:15;;;;;;;;;;;;;;;21.43;43.25;98759.47;4941172;28;20074;-65
2022/06/16 08:55:45;;;;;;;4.00;2.13;;;;;;;21.65;43.22;98761.09;4956218;28;19926;-64
2022/06/16 08:58:17;;;;;;;3.63;1.88;;;;;;;21.77;43.32;98761.22;4956550;28;20043;-66
2022/06/16 09:00:53;;;;;;;5.93;2.22;;;;;;;21.87;44.45;98755.41;4973849;28;20047;-66
2022/06/16 09:03:35;;;;;;;4.40;1.90;;;;;;;21.93;43.97;98753.31;4956027;28;20101;-65
2022/06/16 09:06:09;;;;;;;11.38;2.10;;;;;;;21.96;44.79;98758.06;4956293;28;20428;-66
2022/06/16 09:08:58;;;;;;;3.63;1.98;;;;;;;22.14;45.82;98761.41;4956071;28;20452;-65
2022/06/16 09:11:42;;;;;;;6.90;2.20;;;;;;;22.28;46.76;98753.88;4956090;28;20097;-64
2022/06/16 09:14:17;;;;;;;4.25;2.00;;;;;;;22.48;45.01;98740.69;4955781;28;20547;-66
2022/06/16 09:17:03;;;;;;;4.38;2.42;;;;;;;22.68;43.30;98748.75;4973346;28;20086;-65
2022/06/16 09:19:38;;;;;;;7.35;1.98;;;;;;;22.79;43.31;98751.03;4955920;28;20047;-64
2022/06/16 09:22:25;;;;;;;3.38;2.10;;;;;;;23.04;40.77;98749.22;4972619;28;20050;-64
2022/06/16 09:24:51;;;;;;;4.53;2.20;;;;;;;23.15;40.76;98746.84;4956062;28;20511;-63
2022/06/16 09:27:28;;;;;;;4.13;1.90;;;;;;;23.49;41.16;98745.63;4955719;28;20051;-66
2022/06/16 09:30:07;;;;;;;7.15;2.25;;;;;;;23.57;40.45;98742.03;4955935;28;20411;-64
2022/06/16 09:32:48;;;;;;;5.55;2.03;;;;;;;23.23;41.01;98746.75;4973212;28;20058;-64
2022/06/16 09:35:33;;;;;;;2.28;1.85;;;;;;;23.02;39.67;98751.44;4955531;28;20047;-65
2022/06/16 09:38:25;;;;;;;6.47;2.80;;;;;;;22.72;40.59;98756.19;4955819;28;20070;-64
2022/06/16 09:40:59;;;;;;;5.35;2.03;;;;;;;22.51;40.78;98751.63;4954241;28;20050;-65
2022/06/16 09:43:32;;;;;;;3.13;2.47;;;;;;;22.53;41.40;98753.97;4954434;28;20074;-64
2022/06/16 09:46:09;;;;;;;4.32;1.98;;;;;;;22.38;41.07;98749.97;4938520;28;20042;-65
2022/06/16 09:48:49;;;;;;;3.05;1.75;;;;;;;22.11;39.69;98751.28;4955941;28;20057;-65
2022/06/16 09:51:27;;;;;;;4.82;1.75;;;;;;;21.86;40.16;98751.16;4972719;28;20590;-66
2022/06/16 09:54:03;;;;;;;7.35;2.10;;;;;;;21.63;40.87;98747.16;4955748;28;20039;-65
2022/06/16 09:56:32;;;;;;;4.85;2.45;;;;;;;21.52;40.95;98750.22;4972928;28;20055;-66
2022/06/16 09:59:02;;;;;;;4.32;2.00;;;;;;;21.41;41.75;98743.59;4939508;28;20043;-66
2022/06/16 10:01:29;;;;;;;;;;;;;;;21.44;42.06;98742.16;4973076;28;20535;-64
2022/06/16 10:04:05;;;;;;;10.57;2.88;;;;;;;21.43;42.46;98743.28;4939419;28;19968;-65
2022/06/16 10:06:48;;;;;;;3.13;2.47;;;;;;;21.69;42.50;98743.16;4972576;28;20125;-66
2022/06/16 10:09:22;;;;;;;4.65;2.45;;;;;;;21.88;42.61;98746.19;4972972;28;20053;-66
2022/06/16 10:12:03;;;;;;;6.07;2.40;;;;;;;21.95;42.52;98743.00;4955613;28;20432;-66
2022/06/16 10:14:49;;;;;;;2.72;2.40;;;;;;;22.08;42.74;98741.16;4972822;28;20468;-64
2022/06/16 10:17:18;;;;;;;10.82;3.60;;;;;;;22.22;42.83;98734.38;4972648;28;20118;-65
2022/06/16 10:19:45;;;;;;;4.22;2.20;;;;;;;22.18;41.79;98738.09;4972489;28;20038;-64
2022/06/16 10:22:13;;;;;;;7.00;2.55;;;;;;;22.29;41.76;98736.56;4955117;28;20043;-65
2022/06/16 10:24:53;;;;;;;4.00;2.63;;;;;;;22.58;42.32;98741.06;4972192;28;20433;-65
2022/06/16 10:27:20;;;;;;;2.20;1.98;;;;;;;22.60;39.90;98732.63;4972340;28;20043;-64
2022/06/16 10:29:56;;;;;;;7.80;2.33;;;;;;;22.28;39.89;98737.69;4972312;28;20386;-65
2022/06/16 10:32:35;;;;;;;4.15;2.00;;;;;;;22.31;39.80;98736.22;4974299;28;20046;-65
2022/06/16 10:35:02;;;;;;;6.07;2.15;;;;;;;22.49;39.05;98731.47;4959108;28;20129;-66
2022/06/16 10:37:29;;;;;;;3.72;1.88;;;;;;;22.81;38.07;98727.97;4958890;28;20425;-66
2022/06/16 10:40:01;;;;;;;3.65;2.00;;;;;;;22.82;38.99;98734.94;4959194;28;20047;-65
2022/06/16 10:42:41;;;;;;;2.65;1.95;;;;;;;22.81;38.41;98737.97;4959125;28;20043;-66
2022/06/16 10:45:09;;;;;;;4.43;2.22;;;;;;;;;;4958942;28;20047;-65
2022/06/16 10:47:54;;;;;;;4.70;2.00;;;;;;;22.90;38.61;98744.88;4958997;28;20047;-65
2022/06/16 10:50:29;;;;;;;7.22;2.10;;;;;;;22.99;39.60;98744.00;4975935;28;20035;-66
2022/06/16 10:53:22;;;;;;;6.13;2.22;;;;;;;23.21;38.44;98746.31;4958608;28;20142;-66
2022/06/16 10:55:49;;;;;;;6.20;2.50;;;;;;;23.31;37.53;98739.66;4976141;28;20424;-67
2022/06/16 10:58:49;;;;;;;6.07;2.38;;;;;;;23.34;37.63;98728.94;4958936;28;20094;-67
2022/06/16 11:01:24;;;;;;;4.60;2.38;;;;;;;23.06;38.08;98725.31;4943059;28;20050;-65
2022/06/16 11:03:53;;;;;;;7.30;2.60;;;;;;;23.08;37.83;98736.59;4926368;28;20085;-66
2022/06/16 11:06:21;;;;;;;8.80;2.78;;;;;;;23.35;38.23;98719.72;4975456;28;20133;-66
2022/06/16 11:08:56;;;;;;;6.20;2.13;;;;;;;23.43;38.65;98723.44;4958115;28;20047;-66
2022/06/16 11:11:42;;;;;;;4.32;2.42;;;;;;;23.51;37.85;98730.66;4958338;28;20054;-65
2022/06/16 11:14:13;;;;;;;3.50;1.90;;;;;;;23.54;34.98;98723.78;4959161;28;20488;-67
2022/06/16 11:16:46;;;;;;;5.10;2.03;;;;;;;23.65;33.92;98714.06;4975382;28;20089;-68
2022/06/16 11:19:20;;;;;;;8.82;1.95;;;;;;;23.64;34.50;98719.81;4975495;28;20050;-65
2022/06/16 11:21:46;;;;;;;5.97;1.80;;;;;;;23.50;33.93;98722.84;4975321;28;20468;-66
2022/06/16 11:24:30;;;;;;;8.07;1.80;;;;;;;23.70;34.17;98721.97;4975646;28;20146;-65
2022/06/16 11:27:16;;;;;;;6.75;1.75;;;;;;;23.62;34.23;98720.16;4975211;28;20043;-66
2022/06/16 11:29:42;;;;;;;4.45;1.83;;;;;;;23.57;33.47;98723.09;4957483;28;20500;-66
2022/06/16 11:32:20;;;;;;;4.53;1.70;;;;;;;23.76;34.01;98722.53;4975067;28;20057;-66
2022/06/16 11:34:46;;;;;;;1.70;1.50;;;;;;;23.79;33.74;98721.84;4975346;28;20054;-65
2022/06/16 11:37:42;;;;;;;2.78;1.48;;;;;;;23.92;33.46;98728.81;4925934;28;20046;-66
2022/06/16 11:40:49;;;;;;;4.25;1.58;;;;;;;24.09;33.05;98727.75;4975555;28;20544;-65
2022/06/16 11:43:45;;;;;;;3.20;1.52;;;;;;;24.19;32.36;98740.03;4879843;29;20108;-65
2022/06/16 11:46:21;;;;;;;2.17;1.50;;;;;;;24.17;32.27;98721.41;4896421;29;20136;-66
2022/06/16 11:49:28;;;;;;;9.18;2.28;;;;;;;24.18;31.92;98724.91;4955734;28;20054;-66
2022/06/16 11:52:16;;;;;;;2.45;1.63;;;;;;;24.24;30.59;98721.63;4928497;28;20500;-66
2022/06/16 11:55:09;;;;;;;4.30;1.60;;;;;;;24.15;31.85;98736.41;4975299;28;20047;-65
2022/06/16 11:57:43;;;;;;;8.30;1.80;;;;;;;24.13;32.52;98739.47;4957754;28;20074;-67
2022/06/16 12:00:21;;;;;;;4.43;1.50;;;;;;;23.89;32.62;98724.09;4941728;28;20045;-67
2022/06/16 12:03:02;;;;;;;2.88;1.48;;;;;;;23.57;33.11;98726.56;4974621;28;20520;-66
2022/06/16 12:05:37;;;;;;;7.18;1.90;;;;;;;23.25;33.26;98733.69;4957596;28;20043;-66
2022/06/16 12:08:12;;;;;;;3.10;1.40;;;;;;;23.27;33.46;98730.66;4974696;28;20047;-66
2022/06/16 12:10:41;;;;;;;3.67;2.20;;;;;;;23.28;33.03;98735.72;4974536;28;20508;-66
2022/06/16 12:13:39;;;;;;;3.72;1.90;;;;;;;23.29;33.82;98731.88;4974561;28;20051;-67
2022/06/16 12:16:27;;;;;;;9.50;1.88;;;;;;;23.39;34.00;98730.66;4928446;28;20448;-65